Time;durP1;ratioP1;P1;durP2;ratioP2;P2;SDS_P1;SDS_P2;PMS_P1;PMS_P2;Temp;Humidity;BMP_temperature;BMP_pressure;BME280_temperature;BME280_humidity;BME280_pressure;Samples;Min_cycle;Max_cycle;Signal;HPM_P1;HPM_P2
2022/11/02 00:00:57;;;;;;;17.58;3.50;;;;;;;;;;4988133;28;20064;-64
2022/11/02 00:03:23;;;;;;;19.50;3.55;;;;;;;;;;4988787;28;20037;-64
2022/11/02 00:05:49;;;;;;;20.45;3.47;;;;;;;;;;4985863;28;20046;-64
2022/11/02 00:08:15;;;;;;;20.00;4.72;;;;;;;;;;4986519;28;20086;-63
2022/11/02 00:10:41;;;;;;;12.65;3.55;;;;;;;;;;4989073;28;20035;-63
2022/11/02 00:13:07;;;;;;;15.30;4.65;;;;;;;;;;4959298;28;20039;-64
2022/11/02 00:15:35;;;;;;;10.25;3.53;;;;;;;;;;4981544;28;20121;-63
2022/11/02 00:18:03;;;;;;;22.33;5.70;;;;;;;;;;4977352;28;20045;-65
2022/11/02 00:20:29;;;;;;;17.30;3.45;;;;;;;;;;4980420;28;20085;-65
2022/11/02 00:22:59;;;;;;;16.05;3.55;;;;;;;;;;4990407;28;20062;-63
2022/11/02 00:25:25;;;;;;;20.08;3.80;;;;;;;;;;4983069;28;20041;-65
2022/11/02 00:27:51;;;;;;;18.15;4.63;;;;;;;;;;4987745;28;20033;-64
2022/11/02 00:30:17;;;;;;;15.70;3.67;;;;;;;;;;4972825;28;20034;-64
2022/11/02 00:32:43;;;;;;;19.73;3.97;;;;;;;;;;4989903;28;20053;-65
2022/11/02 00:35:10;;;;;;;17.27;3.83;;;;;;;;;;4988634;28;20085;-65
2022/11/02 00:37:36;;;;;;;14.43;2.92;;;;;;;;;;4990376;28;20128;-65
2022/11/02 00:40:02;;;;;;;16.38;3.70;;;;;;;;;;4989529;28;20117;-65
2022/11/02 00:42:28;;;;;;;16.55;3.58;;;;;;;;;;4977128;28;20566;-65
2022/11/02 00:44:54;;;;;;;20.33;3.95;;;;;;;;;;4986223;28;20117;-64
2022/11/02 00:47:20;;;;;;;18.02;4.47;;;;;;;;;;4986764;28;20113;-65
2022/11/02 00:49:46;;;;;;;16.10;3.35;;;;;;;;;;4988346;28;20498;-65
2022/11/02 00:52:12;;;;;;;22.30;3.10;;;;;;;;;;4972107;28;20038;-65
2022/11/02 00:54:38;;;;;;;16.88;3.88;;;;;;;;;;4988179;28;20026;-66
2022/11/02 00:57:04;;;;;;;11.38;2.45;;;;;;;;;;4982337;28;20043;-65
2022/11/02 00:59:30;;;;;;;11.75;2.72;;;;;;;;;;4990233;28;20030;-65
2022/11/02 01:01:56;;;;;;;9.30;2.05;;;;;;;;;;4974252;28;20026;-65
2022/11/02 01:04:22;;;;;;;12.07;2.00;;;;;;;;;;4985332;28;20026;-66
2022/11/02 01:06:48;;;;;;;7.30;1.92;;;;;;;;;;4946509;28;20057;-65
2022/11/02 01:09:16;;;;;;;7.47;1.85;;;;;;;;;;4967127;28;20042;-69
2022/11/02 01:11:42;;;;;;;6.95;1.40;;;;;;;;;;4969904;28;20015;-65
2022/11/02 01:14:09;;;;;;;10.60;1.88;;;;;;;;;;4967898;28;20031;-65
2022/11/02 01:16:35;;;;;;;6.43;1.50;;;;;;;;;;4969526;28;20141;-65
2022/11/02 01:19:01;;;;;;;10.77;1.80;;;;;;;;;;4963842;28;20437;-63
2022/11/02 01:21:27;;;;;;;12.20;1.75;;;;;;;;;;4953423;28;20520;-63
2022/11/02 01:23:55;;;;;;;9.55;1.75;;;;;;;;;;4965009;28;20038;-64
2022/11/02 01:26:21;;;;;;;9.68;1.60;;;;;;;;;;4966092;28;20031;-65
2022/11/02 01:28:47;;;;;;;12.07;1.40;;;;;;;;;;4961758;28;20102;-64
2022/11/02 01:31:13;;;;;;;7.20;1.30;;;;;;;;;;4967031;28;20462;-66
2022/11/02 01:33:43;;;;;;;9.60;1.40;;;;;;;;;;4974603;28;20061;-65
2022/11/02 01:36:09;;;;;;;9.55;2.75;;;;;;;;;;4965631;28;20031;-65
2022/11/02 01:38:35;;;;;;;8.75;1.30;;;;;;;;;;4967450;28;20490;-64
2022/11/02 01:41:01;;;;;;;8.57;1.38;;;;;;;;;;4949770;28;20485;-65
2022/11/02 01:43:29;;;;;;;5.05;1.00;;;;;;;;;;4969826;28;20090;-64
2022/11/02 01:45:56;;;;;;;5.72;1.33;;;;;;;;;;4968004;28;20510;-64
2022/11/02 01:48:26;;;;;;;6.15;1.02;;;;;;;;;;4969332;28;20035;-64
2022/11/02 01:50:52;;;;;;;9.40;1.38;;;;;;;;;;4969696;28;20071;-64
2022/11/02 01:53:18;;;;;;;6.25;1.10;;;;;;;;;;4949381;28;20515;-66
2022/11/02 01:55:44;;;;;;;7.78;1.25;;;;;;;;;;4970277;28;20029;-64
2022/11/02 01:58:11;;;;;;;8.30;1.10;;;;;;;;;;4968813;28;20041;-66
2022/11/02 02:00:38;;;;;;;10.05;1.20;;;;;;;;;;4971168;28;20031;-64
2022/11/02 02:03:12;;;;;;;10.43;1.65;;;;;;;;;;4967749;28;20051;-65
2022/11/02 02:05:40;;;;;;;10.63;1.67;;;;;;;;;;4967831;28;20026;-65
2022/11/02 02:08:07;;;;;;;10.60;1.40;;;;;;;;;;4988855;28;20045;-64
2022/11/02 02:10:33;;;;;;;10.35;1.90;;;;;;;;;;4987119;28;20075;-65
2022/11/02 02:12:59;;;;;;;10.25;1.52;;;;;;;;;;4989202;28;20049;-64
2022/11/02 02:15:30;;;;;;;8.38;1.50;;;;;;;;;;4978026;28;20031;-65
2022/11/02 02:18:20;;;;;;;6.95;1.25;;;;;;;;;;4991371;28;20058;-65
2022/11/02 02:21:09;;;;;;;9.07;1.55;;;;;;;;;;4982450;28;20497;-66
2022/11/02 02:23:59;;;;;;;13.02;1.70;;;;;;;;;;4984648;28;20038;-65
2022/11/02 02:26:43;;;;;;;11.10;1.83;;;;;;;;;;4981598;28;20158;-66
2022/11/02 02:29:13;;;;;;;8.15;1.60;;;;;;;;;;4980629;28;20482;-64
2022/11/02 02:31:52;;;;;;;17.13;1.80;;;;;;;;;;4991711;28;20072;-64
2022/11/02 02:34:20;;;;;;;11.63;2.75;;;;;;;;;;4991895;28;20442;-64
2022/11/02 02:36:51;;;;;;;10.05;1.65;;;;;;;;;;4971710;28;20031;-65
2022/11/02 02:39:22;;;;;;;18.38;2.35;;;;;;;;;;4990505;28;20512;-64
2022/11/02 02:41:57;;;;;;;12.52;2.42;;;;;;;;;;4990816;28;20030;-63
2022/11/02 02:44:25;;;;;;;8.55;2.17;;;;;;;;;;4990418;28;20034;-64
2022/11/02 02:46:55;;;;;;;17.40;2.97;;;;;;;;;;4989533;28;20504;-64
2022/11/02 02:49:30;;;;;;;14.18;2.85;;;;;;;;;;4989102;28;20022;-64
2022/11/02 02:51:57;;;;;;;16.15;3.25;;;;;;;;;;4989556;28;20126;-65
2022/11/02 02:54:25;;;;;;;21.88;3.53;;;;;;;;;;4988877;28;20399;-65
2022/11/02 02:56:53;;;;;;;14.35;2.58;;;;;;;;;;4989451;28;20050;-64
2022/11/02 02:59:28;;;;;;;14.52;2.50;;;;;;;;;;4988147;28;20034;-64
2022/11/02 03:01:55;;;;;;;16.00;3.03;;;;;;;;;;4985777;28;20030;-64
2022/11/02 03:04:21;;;;;;;11.35;2.80;;;;;;;;;;4989077;28;20473;-65
2022/11/02 03:06:50;;;;;;;13.25;2.75;;;;;;;;;;4988727;28;20146;-63
2022/11/02 03:09:15;;;;;;;19.23;4.28;;;;;;;;;;4987558;28;20080;-65
2022/11/02 03:11:57;;;;;;;19.75;3.47;;;;;;;;;;4988879;28;20448;-64
2022/11/02 03:14:23;;;;;;;;;;;;;;;;;;4986400;28;20034;-64
2022/11/02 03:17:01;;;;;;;10.63;2.90;;;;;;;;;;4993860;28;19914;-64
2022/11/02 03:19:38;;;;;;;11.68;2.50;;;;;;;;;;4998178;28;20046;-65
2022/11/02 03:22:08;;;;;;;19.65;2.45;;;;;;;;;;4989270;28;20030;-64
2022/11/02 03:24:42;;;;;;;15.60;2.93;;;;;;;;;;4990785;28;20085;-64
2022/11/02 03:27:16;;;;;;;15.80;3.20;;;;;;;;;;4990656;28;20041;-64
2022/11/02 03:29:52;;;;;;;14.05;2.83;;;;;;;;;;4990028;28;20026;-65
2022/11/02 03:32:27;;;;;;;19.45;3.22;;;;;;;;;;4988396;28;20513;-64
2022/11/02 03:34:55;;;;;;;17.48;3.28;;;;;;;;;;4991017;28;20030;-64
2022/11/02 03:37:33;;;;;;;17.35;3.50;;;;;;;;;;4974345;28;20058;-64
2022/11/02 03:40:14;;;;;;;18.73;3.63;;;;;;;;;;4987870;28;20030;-65
2022/11/02 03:42:41;;;;;;;17.00;3.15;;;;;;;;;;4990410;28;20041;-64
2022/11/02 03:45:12;;;;;;;21.08;3.45;;;;;;;;;;4988010;28;20263;-65
2022/11/02 03:47:39;;;;;;;23.52;5.47;;;;;;;;;;4991353;28;20497;-65
2022/11/02 03:50:07;;;;;;;12.90;2.67;;;;;;;;;;4988909;28;20570;-65
2022/11/02 03:52:35;;;;;;;18.10;3.10;;;;;;;;;;4991371;28;20038;-67
2022/11/02 03:55:13;;;;;;;17.48;4.18;;;;;;;;;;4989522;28;20532;-66
2022/11/02 03:57:46;;;;;;;20.48;4.15;;;;;;;;;;4989254;28;20497;-66
2022/11/02 04:00:14;;;;;;;17.48;3.13;;;;;;;;;;4979682;28;20042;-69
2022/11/02 04:02:41;;;;;;;23.17;3.90;;;;;;;;;;4987091;28;20395;-65
2022/11/02 04:05:07;;;;;;;22.63;4.03;;;;;;;;;;4989000;28;20394;-65
2022/11/02 04:08:19;;;;;;;25.67;3.42;;;;;;;;;;4989122;28;20042;-65
2022/11/02 04:10:20;;;;;;;22.80;3.28;;;;;;;;;;4986292;28;21248;-65
2022/11/02 04:15:31;;;;;;;27.38;3.92;;;;;;;;;;4990978;28;20084;-66
2022/11/02 04:20:41;;;;;;;20.65;3.25;;;;;;;;;;4990366;28;20097;-66
2022/11/02 04:25:53;;;;;;;25.17;3.50;;;;;;;;;;4966134;28;20069;-68
2022/11/02 04:28:19;;;;;;;23.58;4.03;;;;;;;;;;4987832;28;20030;-65
2022/11/02 04:30:45;;;;;;;18.98;4.22;;;;;;;;;;4986719;28;20030;-64
2022/11/02 04:35:56;;;;;;;23.40;3.72;;;;;;;;;;4986065;28;20045;-65
2022/11/02 04:38:40;;;;;;;19.20;3.75;;;;;;;;;;4982404;28;20034;-65
2022/11/02 04:43:52;;;;;;;32.92;4.28;;;;;;;;;;4983743;28;20096;-65
2022/11/02 04:46:18;;;;;;;30.95;3.88;;;;;;;;;;4988783;28;20125;-65
2022/11/02 04:48:44;;;;;;;30.50;4.47;;;;;;;;;;4988577;28;20132;-65
2022/11/02 04:51:10;;;;;;;26.85;4.05;;;;;;;;;;4989353;28;20109;-65
2022/11/02 04:53:36;;;;;;;23.75;4.20;;;;;;;;;;4968472;28;20030;-65
2022/11/02 04:56:02;;;;;;;26.20;3.53;;;;;;;;;;4989726;28;20532;-65
2022/11/02 04:58:28;;;;;;;26.15;4.78;;;;;;;;;;4983638;28;20026;-65
2022/11/02 05:00:54;;;;;;;24.20;3.67;;;;;;;;;;4989406;28;20114;-64
2022/11/02 05:03:20;;;;;;;33.92;5.03;;;;;;;;;;4971318;28;20037;-63
2022/11/02 05:05:46;;;;;;;19.73;3.65;;;;;;;;;;4986808;28;20544;-64
2022/11/02 05:08:12;;;;;;;26.83;3.60;;;;;;;;;;4968202;28;20159;-64
2022/11/02 05:10:38;;;;;;;30.85;3.70;;;;;;;;;;4976769;28;20536;-66
2022/11/02 05:13:04;;;;;;;18.20;3.40;;;;;;;;;;4981388;28;20117;-64
2022/11/02 05:15:30;;;;;;;26.27;3.25;;;;;;;;;;4983369;28;20027;-63
2022/11/02 05:17:56;;;;;;;23.45;3.63;;;;;;;;;;4989911;28;20040;-64
2022/11/02 05:20:22;;;;;;;29.48;4.10;;;;;;;;;;4989500;28;20034;-65
2022/11/02 05:22:48;;;;;;;27.20;3.78;;;;;;;;;;4988522;28;20481;-63
2022/11/02 05:25:14;;;;;;;25.17;3.55;;;;;;;;;;4990241;28;20107;-63
2022/11/02 05:27:40;;;;;;;27.52;4.57;;;;;;;;;;4987662;28;20750;-64
2022/11/02 05:30:06;;;;;;;30.33;3.72;;;;;;;;;;4989097;28;20135;-64
2022/11/02 05:32:32;;;;;;;29.52;5.32;;;;;;;;;;4972679;28;20033;-66
2022/11/02 05:34:58;;;;;;;22.17;4.35;;;;;;;;;;4988786;28;20101;-65
2022/11/02 05:37:24;;;;;;;24.17;4.18;;;;;;;;;;4989417;28;20034;-64
2022/11/02 05:39:50;;;;;;;28.77;3.33;;;;;;;;;;4970946;28;20038;-65
2022/11/02 05:42:16;;;;;;;23.27;3.92;;;;;;;;;;4988203;28;20038;-63
2022/11/02 05:44:42;;;;;;;20.83;3.53;;;;;;;;;;4989265;28;20035;-63
2022/11/02 05:47:08;;;;;;;21.08;3.42;;;;;;;;;;4988334;28;20050;-65
2022/11/02 05:49:34;;;;;;;27.02;4.07;;;;;;;;;;4980372;28;20038;-64
2022/11/02 05:52:00;;;;;;;17.35;2.95;;;;;;;;;;4971651;28;20034;-63
2022/11/02 05:54:26;;;;;;;19.30;3.70;;;;;;;;;;4990678;28;20034;-65
2022/11/02 05:56:52;;;;;;;24.83;3.85;;;;;;;;;;4991410;28;20049;-66
2022/11/02 05:59:18;;;;;;;22.05;3.10;;;;;;;;;;4991516;28;20018;-63
2022/11/02 06:01:44;;;;;;;19.20;3.42;;;;;;;;;;4996786;28;20049;-65
2022/11/02 06:04:10;;;;;;;24.50;3.88;;;;;;;;;;5008463;28;20038;-66
2022/11/02 06:06:36;;;;;;;17.67;2.63;;;;;;;;;;4991972;28;20524;-66
2022/11/02 06:09:02;;;;;;;24.13;4.13;;;;;;;;;;4976365;28;20038;-65
2022/11/02 06:11:28;;;;;;;29.35;3.65;;;;;;;;;;4992803;28;20052;-66
2022/11/02 06:13:54;;;;;;;26.65;4.10;;;;;;;;;;4992964;28;20044;-65
2022/11/02 06:16:20;;;;;;;25.17;2.72;;;;;;;;;;4992918;28;20474;-65
2022/11/02 06:18:46;;;;;;;18.05;4.15;;;;;;;;;;4990133;28;20037;-66
2022/11/02 06:21:13;;;;;;;21.02;3.85;;;;;;;;;;4991039;28;20035;-65
2022/11/02 06:23:39;;;;;;;22.35;3.15;;;;;;;;;;4993631;28;20113;-65
2022/11/02 06:26:05;;;;;;;21.20;2.40;;;;;;;;;;4992802;28;20449;-67
2022/11/02 06:28:31;;;;;;;17.17;2.80;;;;;;;;;;4997695;28;20034;-65
2022/11/02 06:30:57;;;;;;;15.13;2.20;;;;;;;;;;4992634;28;20033;-62
2022/11/02 06:33:23;;;;;;;14.70;3.05;;;;;;;;;;5007372;28;20476;-65
2022/11/02 06:35:53;;;;;;;17.20;3.13;;;;;;;;;;5004490;28;20106;-65
2022/11/02 06:38:19;;;;;;;12.35;2.00;;;;;;;;;;4997763;28;20030;-65
2022/11/02 06:40:58;;;;;;;16.90;2.72;;;;;;;;;;4989320;28;20026;-65
2022/11/02 06:43:24;;;;;;;18.98;2.13;;;;;;;;;;4993606;28;20034;-65
2022/11/02 06:45:54;;;;;;;11.90;2.00;;;;;;;;;;4985634;28;20074;-66
2022/11/02 06:48:20;;;;;;;20.30;2.95;;;;;;;;;;4991155;28;20027;-65
2022/11/02 06:50:46;;;;;;;16.23;2.58;;;;;;;;;;4975328;28;20120;-65
2022/11/02 06:53:12;;;;;;;15.02;2.28;;;;;;;;;;4988439;28;20057;-65
2022/11/02 06:55:38;;;;;;;14.30;1.83;;;;;;;;;;4978175;28;20039;-65
2022/11/02 06:58:04;;;;;;;11.50;1.85;;;;;;;;;;4983911;28;20114;-63
2022/11/02 07:00:30;;;;;;;11.57;1.80;;;;;;;;;;4982730;28;20469;-66
2022/11/02 07:03:00;;;;;;;14.77;2.75;;;;;;;;;;4970228;28;20026;-65
2022/11/02 07:05:26;;;;;;;16.67;2.73;;;;;;;;;;4987150;28;20142;-63
2022/11/02 07:07:52;;;;;;;19.20;2.13;;;;;;;;;;4988122;28;20137;-65
2022/11/02 07:10:20;;;;;;;20.52;3.22;;;;;;;;;;4989331;28;20502;-65
2022/11/02 07:12:46;;;;;;;14.20;2.50;;;;;;;;;;4981221;28;20031;-63
2022/11/02 07:15:12;;;;;;;7.55;1.63;;;;;;;;;;4993262;28;20100;-63
2022/11/02 07:17:39;;;;;;;17.85;2.20;;;;;;;;;;4986647;28;20030;-63
2022/11/02 07:20:05;;;;;;;13.48;2.08;;;;;;;;;;4985140;28;20130;-64
2022/11/02 07:22:31;;;;;;;14.95;2.42;;;;;;;;;;4984412;28;20050;-63
2022/11/02 07:24:57;;;;;;;17.40;2.75;;;;;;;;;;4978344;28;20023;-66
2022/11/02 07:27:23;;;;;;;14.88;2.78;;;;;;;;;;4990738;28;20128;-65
2022/11/02 07:29:49;;;;;;;21.60;2.22;;;;;;;;;;4958404;28;20533;-65
2022/11/02 07:32:15;;;;;;;16.58;2.70;;;;;;;;;;4992465;28;20032;-65
2022/11/02 07:34:41;;;;;;;11.77;2.55;;;;;;;;;;4990421;28;20038;-65
2022/11/02 07:37:07;;;;;;;17.83;2.90;;;;;;;;;;4980281;28;20081;-65
2022/11/02 07:39:33;;;;;;;7.97;1.98;;;;;;;;;;4991287;28;20035;-65
2022/11/02 07:42:00;;;;;;;14.30;2.65;;;;;;;;;;4991450;28;20042;-65
2022/11/02 07:44:26;;;;;;;13.85;2.40;;;;;;;;;;4992428;28;20039;-64
2022/11/02 07:46:52;;;;;;;12.23;1.67;;;;;;;;;;4969377;28;20101;-65
2022/11/02 07:49:18;;;;;;;18.42;2.38;;;;;;;;;;4972398;28;20035;-65
2022/11/02 07:51:44;;;;;;;11.43;2.35;;;;;;;;;;4979479;28;20045;-65
2022/11/02 07:54:10;;;;;;;17.80;3.22;;;;;;;;;;4992028;28;20046;-65
2022/11/02 07:56:36;;;;;;;14.88;2.60;;;;;;;;;;4991849;28;20096;-64
2022/11/02 07:59:02;;;;;;;13.30;2.05;;;;;;;;;;4990106;28;20038;-65
2022/11/02 08:01:28;;;;;;;17.13;2.38;;;;;;;;;;4974406;28;20038;-65
2022/11/02 08:03:55;;;;;;;24.70;2.55;;;;;;;;;;4990083;28;20397;-65
2022/11/02 08:06:21;;;;;;;13.25;2.45;;;;;;;;;;4989993;28;20038;-65
2022/11/02 08:08:47;;;;;;;18.40;2.88;;;;;;;;;;4991599;28;20114;-66
2022/11/02 08:11:13;;;;;;;13.05;2.55;;;;;;;;;;4991747;28;20077;-65
2022/11/02 08:13:39;;;;;;;14.98;2.05;;;;;;;;;;4990854;28;20037;-65
2022/11/02 08:16:05;;;;;;;16.73;3.03;;;;;;;;;;4990130;28;20108;-65
2022/11/02 08:18:31;;;;;;;17.38;2.20;;;;;;;;;;4989525;28;20077;-65
2022/11/02 08:20:58;;;;;;;13.50;2.45;;;;;;;;;;4993213;28;20042;-65
2022/11/02 08:23:24;;;;;;;20.30;2.28;;;;;;;;;;4991021;28;20058;-64
2022/11/02 08:25:51;;;;;;;12.38;2.10;;;;;;;;;;4989694;28;20030;-65
2022/11/02 08:28:25;;;;;;;13.85;3.53;;;;;;;;;;4991483;28;20026;-65
2022/11/02 08:30:51;;;;;;;18.63;1.95;;;;;;;;;;4990421;28;20737;-65
2022/11/02 08:33:18;;;;;;;15.25;2.15;;;;;;;;;;4973960;28;20442;-65
2022/11/02 08:35:45;;;;;;;13.27;2.30;;;;;;;;;;4990355;28;20423;-64
2022/11/02 08:38:11;;;;;;;14.30;2.72;;;;;;;;;;4988154;28;20038;-65
2022/11/02 08:40:38;;;;;;;15.85;2.63;;;;;;;;;;4991079;28;20129;-65
2022/11/02 08:43:08;;;;;;;13.02;2.78;;;;;;;;;;4991372;28;20026;-65
2022/11/02 08:45:35;;;;;;;15.15;2.63;;;;;;;;;;4991709;28;20047;-64
2022/11/02 08:48:01;;;;;;;22.60;2.40;;;;;;;;;;4989339;28;20117;-65
2022/11/02 08:50:27;;;;;;;18.00;2.45;;;;;;;;;;4971824;28;20085;-65
2022/11/02 08:52:53;;;;;;;22.42;2.72;;;;;;;;;;4975114;28;20513;-65
2022/11/02 08:55:19;;;;;;;17.52;3.08;;;;;;;;;;4973879;28;20062;-65
2022/11/02 08:57:46;;;;;;;21.98;3.20;;;;;;;;;;4991285;28;20037;-65
2022/11/02 09:00:13;;;;;;;18.30;2.90;;;;;;;;;;4989679;28;20543;-65
2022/11/02 09:02:39;;;;;;;25.17;3.80;;;;;;;;;;4989452;28;20078;-65
2022/11/02 09:05:05;;;;;;;14.18;2.30;;;;;;;;;;4982995;28;20081;-63
2022/11/02 09:07:31;;;;;;;16.73;2.10;;;;;;;;;;4990139;28;21247;-65
2022/11/02 09:09:57;;;;;;;13.57;2.33;;;;;;;;;;4990471;28;20117;-64
2022/11/02 09:12:23;;;;;;;15.73;2.60;;;;;;;;;;4989563;28;20371;-65
2022/11/02 09:14:49;;;;;;;12.05;2.08;;;;;;;;;;4990172;28;20034;-65
2022/11/02 09:17:15;;;;;;;17.55;3.05;;;;;;;;;;4990069;28;20038;-65
2022/11/02 09:19:41;;;;;;;16.02;2.30;;;;;;;;;;4989068;28;20030;-65
2022/11/02 09:22:07;;;;;;;15.90;2.22;;;;;;;;;;4990082;28;20022;-65
2022/11/02 09:24:33;;;;;;;12.00;1.98;;;;;;;;;;4990652;28;20038;-64
2022/11/02 09:26:59;;;;;;;17.42;2.63;;;;;;;;;;4992045;28;20121;-65
2022/11/02 09:29:25;;;;;;;16.23;2.67;;;;;;;;;;4994078;28;20042;-65
2022/11/02 09:31:52;;;;;;;15.23;2.67;;;;;;;;;;4994339;28;20108;-65
2022/11/02 09:34:18;;;;;;;18.90;2.45;;;;;;;;;;4994134;28;20027;-65
2022/11/02 09:36:44;;;;;;;15.45;2.67;;;;;;;;;;4993292;28;20064;-65
2022/11/02 09:39:10;;;;;;;15.93;2.63;;;;;;;;;;4993528;28;20034;-65
2022/11/02 09:41:36;;;;;;;14.98;2.25;;;;;;;;;;4994022;28;20397;-64
2022/11/02 09:44:21;;;;;;;23.55;2.60;;;;;;;;;;4993051;28;20477;-65
2022/11/02 09:46:47;;;;;;;17.40;2.78;;;;;;;;;;4991580;28;20030;-65
2022/11/02 09:49:17;;;;;;;17.80;2.45;;;;;;;;;;4994012;28;20066;-65
2022/11/02 09:51:50;;;;;;;18.75;3.38;;;;;;;;;;4992934;28;20034;-65
2022/11/02 09:54:36;;;;;;;14.70;2.05;;;;;;;;;;4994193;28;20030;-65
2022/11/02 09:57:10;;;;;;;17.45;2.95;;;;;;;;;;4994450;28;20030;-65
2022/11/02 09:59:36;;;;;;;15.15;2.33;;;;;;;;;;4993534;28;20030;-65
2022/11/02 10:02:07;;;;;;;15.00;3.08;;;;;;;;;;4971172;28;20035;-65
2022/11/02 10:04:33;;;;;;;;;;;;;;;;;;4977044;28;20096;-65
2022/11/02 10:07:22;;;;;;;16.38;2.85;;;;;;;;;;4993877;28;19921;-65
2022/11/02 10:09:54;;;;;;;19.10;2.95;;;;;;;;;;4975273;28;20042;-65
2022/11/02 10:12:30;;;;;;;17.95;2.47;;;;;;;;;;4992886;28;20027;-65
2022/11/02 10:15:01;;;;;;;17.73;2.47;;;;;;;;;;4993771;28;20043;-65
2022/11/02 10:17:29;;;;;;;17.80;2.45;;;;;;;;;;4993302;28;20027;-65
2022/11/02 10:19:56;;;;;;;15.25;3.58;;;;;;;;;;4993555;28;20474;-65
2022/11/02 10:22:26;;;;;;;24.92;2.58;;;;;;;;;;4991813;28;20026;-65
2022/11/02 10:24:52;;;;;;;13.88;2.30;;;;;;;;;;4993752;28;20038;-65
2022/11/02 10:27:21;;;;;;;19.30;2.80;;;;;;;;;;4993837;28;20023;-64
2022/11/02 10:30:05;;;;;;;19.70;3.38;;;;;;;;;;4993808;28;20025;-64
2022/11/02 10:32:32;;;;;;;17.50;2.72;;;;;;;;;;4992489;28;20030;-64
2022/11/02 10:34:59;;;;;;;17.35;3.47;;;;;;;;;;4993455;28;20094;-64
2022/11/02 10:37:31;;;;;;;20.92;3.17;;;;;;;;;;4992664;28;20034;-64
2022/11/02 10:40:03;;;;;;;17.65;2.95;;;;;;;;;;4992729;28;20054;-65
2022/11/02 10:42:48;;;;;;;23.58;3.17;;;;;;;;;;4991514;28;20026;-67
2022/11/02 10:45:16;;;;;;;16.67;2.30;;;;;;;;;;4992836;28;20120;-64
2022/11/02 10:47:45;;;;;;;14.93;3.35;;;;;;;;;;4993011;28;20015;-64
2022/11/02 10:50:28;;;;;;;16.02;2.80;;;;;;;;;;4992718;28;20069;-64
2022/11/02 10:52:54;;;;;;;16.15;2.85;;;;;;;;;;4991542;28;20018;-64
2022/11/02 10:55:23;;;;;;;22.05;3.15;;;;;;;;;;4992955;28;20041;-65
2022/11/02 10:57:51;;;;;;;15.38;2.05;;;;;;;;;;4992408;28;20034;-64
2022/11/02 11:00:22;;;;;;;17.27;2.95;;;;;;;;;;4992088;28;20486;-64
2022/11/02 11:03:04;;;;;;;15.85;2.58;;;;;;;;;;4989183;28;20018;-64
2022/11/02 11:05:31;;;;;;;13.60;3.28;;;;;;;;;;4988982;28;20057;-65
2022/11/02 11:07:57;;;;;;;15.93;2.35;;;;;;;;;;4975462;28;20105;-65
2022/11/02 11:10:23;;;;;;;19.13;2.47;;;;;;;;;;4992932;28;20038;-65
2022/11/02 11:12:50;;;;;;;15.40;2.95;;;;;;;;;;4993133;28;20052;-68
2022/11/02 11:15:23;;;;;;;14.60;3.45;;;;;;;;;;4992717;28;20089;-64
2022/11/02 11:17:49;;;;;;;22.05;2.97;;;;;;;;;;4974298;28;20123;-64
2022/11/02 11:20:33;;;;;;;22.27;3.08;;;;;;;;;;4992770;28;20026;-64
2022/11/02 11:23:17;;;;;;;17.73;3.22;;;;;;;;;;4993219;28;20059;-64
2022/11/02 11:25:52;;;;;;;19.27;3.35;;;;;;;;;;4993143;28;20033;-64
2022/11/02 11:28:24;;;;;;;25.58;2.67;;;;;;;;;;4991323;28;20026;-64
2022/11/02 11:31:11;;;;;;;14.93;2.50;;;;;;;;;;4989963;28;20034;-64
2022/11/02 11:33:46;;;;;;;18.58;2.92;;;;;;;;;;4993092;28;20023;-64
2022/11/02 11:36:20;;;;;;;21.45;3.75;;;;;;;;;;4992811;28;20080;-64
2022/11/02 11:38:47;;;;;;;22.05;4.40;;;;;;;;;;4985862;28;20038;-63
2022/11/02 11:41:13;;;;;;;14.55;2.47;;;;;;;;;;4974105;28;20525;-65
2022/11/02 11:43:39;;;;;;;19.48;3.05;;;;;;;;;;4992083;28;20169;-64
2022/11/02 11:46:07;;;;;;;14.85;2.30;;;;;;;;;;4992446;28;20039;-64
2022/11/02 11:48:51;;;;;;;13.50;2.60;;;;;;;;;;4991351;28;20027;-64
2022/11/02 11:51:38;;;;;;;15.27;2.42;;;;;;;;;;4989049;28;20038;-64
2022/11/02 11:54:22;;;;;;;19.83;3.05;;;;;;;;;;4991974;28;20037;-64
2022/11/02 11:56:48;;;;;;;18.00;2.80;;;;;;;;;;4991572;28;20030;-66
2022/11/02 11:59:22;;;;;;;20.25;3.28;;;;;;;;;;4991300;28;20167;-66
2022/11/02 12:01:55;;;;;;;16.27;2.60;;;;;;;;;;4989884;28;20105;-66
2022/11/02 12:04:39;;;;;;;16.73;2.55;;;;;;;;;;4992224;28;20125;-66
2022/11/02 12:07:14;;;;;;;20.77;3.85;;;;;;;;;;4992352;28;20037;-66
2022/11/02 12:09:40;;;;;;;19.98;3.05;;;;;;;;;;4991129;28;20035;-66
2022/11/02 12:12:27;;;;;;;16.02;2.55;;;;;;;;;;4978586;28;20392;-66
2022/11/02 12:15:12;;;;;;;20.70;3.13;;;;;;;;;;4991424;28;20030;-66
2022/11/02 12:17:43;;;;;;;25.48;3.88;;;;;;;;;;4991271;28;20034;-66
2022/11/02 12:20:23;;;;;;;15.65;2.30;;;;;;;;;;4990923;28;20160;-65
2022/11/02 12:22:52;;;;;;;19.23;3.47;;;;;;;;;;4990658;28;20049;-66
2022/11/02 12:25:24;;;;;;;17.00;2.72;;;;;;;;;;4991502;28;20026;-66
2022/11/02 12:27:51;;;;;;;16.85;3.20;;;;;;;;;;4991370;28;20026;-66
2022/11/02 12:30:19;;;;;;;17.48;3.65;;;;;;;;;;4991238;28;20105;-66
2022/11/02 12:33:18;;;;;;;12.88;2.78;;;;;;;;;;4987026;28;20031;-67
2022/11/02 12:35:46;;;;;;;13.52;2.38;;;;;;;;;;4939550;28;20070;-66
2022/11/02 12:38:22;;;;;;;18.52;3.30;;;;;;;;;;4971679;28;20178;-66
2022/11/02 12:41:06;;;;;;;14.98;2.85;;;;;;;;;;4971774;28;20053;-66
2022/11/02 12:43:49;;;;;;;20.08;3.03;;;;;;;;;;4990835;28;20034;-66
2022/11/02 12:46:33;;;;;;;18.42;2.67;;;;;;;;;;4976071;28;20069;-66
2022/11/02 12:49:02;;;;;;;17.75;2.80;;;;;;;;;;4971935;28;20031;-66
2022/11/02 12:51:46;;;;;;;15.57;2.40;;;;;;;;;;4954237;28;20023;-66
2022/11/02 12:54:24;;;;;;;13.95;2.42;;;;;;;;;;4971579;28;20039;-67
2022/11/02 12:56:54;;;;;;;19.23;2.75;;;;;;;;;;4978073;28;20066;-66
2022/11/02 12:59:25;;;;;;;15.32;3.00;;;;;;;;;;4989859;28;20059;-66
2022/11/02 13:01:54;;;;;;;21.48;3.13;;;;;;;;;;4990257;28;20027;-66
2022/11/02 13:04:25;;;;;;;16.73;2.78;;;;;;;;;;4990239;28;20040;-66
2022/11/02 13:06:55;;;;;;;16.75;2.22;;;;;;;;;;4990258;28;20046;-64
2022/11/02 13:09:24;;;;;;;15.23;2.47;;;;;;;;;;4983745;28;20028;-66
2022/11/02 13:11:57;;;;;;;14.50;2.58;;;;;;;;;;4990685;28;20037;-66
2022/11/02 13:14:25;;;;;;;15.40;2.28;;;;;;;;;;4990317;28;20426;-65
2022/11/02 13:17:17;;;;;;;16.27;2.97;;;;;;;;;;4990580;28;20244;-66
2022/11/02 13:19:49;;;;;;;19.55;2.40;;;;;;;;;;4975273;28;20038;-65
2022/11/02 13:22:17;;;;;;;21.33;2.60;;;;;;;;;;4989974;28;20031;-66
2022/11/02 13:24:46;;;;;;;19.08;3.15;;;;;;;;;;4990441;28;20065;-65
2022/11/02 13:27:44;;;;;;;16.48;2.40;;;;;;;;;;4990317;28;20026;-65
2022/11/02 13:30:14;;;;;;;12.57;2.10;;;;;;;;;;4947407;28;20062;-65
2022/11/02 13:32:42;;;;;;;22.75;3.53;;;;;;;;;;4990609;28;20027;-65
2022/11/02 13:35:19;;;;;;;15.63;2.83;;;;;;;;;;4990381;28;20027;-66
2022/11/02 13:37:48;;;;;;;16.27;2.50;;;;;;;;;;4990635;28;20035;-65
2022/11/02 13:40:24;;;;;;;22.35;3.45;;;;;;;;;;4989980;28;20054;-64
2022/11/02 13:42:50;;;;;;;22.70;2.67;;;;;;;;;;4971685;28;20041;-64
2022/11/02 13:45:25;;;;;;;21.92;3.70;;;;;;;;;;4984346;28;20031;-64
2022/11/02 13:47:58;;;;;;;12.32;2.63;;;;;;;;;;4990611;28;20041;-64
2022/11/02 13:50:25;;;;;;;18.58;3.60;;;;;;;;;;4990005;28;20113;-64
2022/11/02 13:52:59;;;;;;;17.27;3.50;;;;;;;;;;4991343;28;20474;-66
2022/11/02 13:55:27;;;;;;;17.85;2.85;;;;;;;;;;4989074;28;20037;-66
2022/11/02 13:57:56;;;;;;;17.30;2.75;;;;;;;;;;4991066;28;20030;-64
2022/11/02 14:00:22;;;;;;;16.23;2.92;;;;;;;;;;4990684;28;20103;-65
2022/11/02 14:02:50;;;;;;;22.30;3.08;;;;;;;;;;4990969;28;20323;-67
2022/11/02 14:05:28;;;;;;;19.02;2.63;;;;;;;;;;4972578;28;20026;-66
2022/11/02 14:08:00;;;;;;;23.08;4.57;;;;;;;;;;4990690;28;20493;-65
2022/11/02 14:10:27;;;;;;;21.98;2.70;;;;;;;;;;4990138;28;20517;-65
2022/11/02 14:12:53;;;;;;;24.23;3.53;;;;;;;;;;4992706;28;20580;-66
2022/11/02 14:15:19;;;;;;;20.40;2.78;;;;;;;;;;4993619;28;20128;-65
2022/11/02 14:17:55;;;;;;;15.93;2.78;;;;;;;;;;4992763;28;20034;-64
2022/11/02 14:20:39;;;;;;;21.33;2.75;;;;;;;;;;4993245;28;20038;-64
2022/11/02 14:23:08;;;;;;;25.42;3.55;;;;;;;;;;4993460;28;20053;-64
2022/11/02 14:25:53;;;;;;;15.35;2.70;;;;;;;;;;4992652;28;20026;-66
2022/11/02 14:28:19;;;;;;;21.90;3.35;;;;;;;;;;4993199;28;20537;-66
2022/11/02 14:30:47;;;;;;;20.52;3.72;;;;;;;;;;4992344;28;20026;-65
2022/11/02 14:33:34;;;;;;;20.50;3.58;;;;;;;;;;4993434;28;20038;-67
2022/11/02 14:36:00;;;;;;;23.10;3.35;;;;;;;;;;4963076;28;20432;-64
2022/11/02 14:38:42;;;;;;;19.13;3.65;;;;;;;;;;4992693;28;20018;-64
2022/11/02 14:41:08;;;;;;;20.75;3.38;;;;;;;;;;4991509;28;20038;-64
2022/11/02 14:43:57;;;;;;;24.30;3.92;;;;;;;;;;4992318;28;20095;-65
2022/11/02 14:46:38;;;;;;;19.80;3.17;;;;;;;;;;4992194;28;20045;-65
2022/11/02 14:49:04;;;;;;;;;;;;;;;;;;4993775;28;20056;-64
2022/11/02 14:51:36;;;;;;;21.48;4.47;;;;;;;;;;4992401;28;19937;-65
2022/11/02 14:54:03;;;;;;;19.00;3.75;;;;;;;;;;4992762;28;20049;-64
2022/11/02 14:56:50;;;;;;;28.20;4.05;;;;;;;;;;4992950;28;20030;-64
2022/11/02 14:59:22;;;;;;;17.67;4.97;;;;;;;;;;4993271;28;20041;-64